createdAt,value
2017-09-15T00:00:33.941Z,89.68
2017-09-15T00:01:44.373Z,89.39
2017-09-15T00:02:54.522Z,89.87
2017-09-15T00:04:04.640Z,90.06
2017-09-15T00:05:14.742Z,89.49
2017-09-15T00:06:25.195Z,89.68
2017-09-15T00:07:35.611Z,89.68
2017-09-15T00:08:46.034Z,89.87
2017-09-15T00:09:56.534Z,89.59
2017-09-15T00:11:06.502Z,89.97
2017-09-15T00:12:16.962Z,89.78
2017-09-15T00:13:27.398Z,89.49
2017-09-15T00:14:37.830Z,89.68
2017-09-15T00:15:48.251Z,89.59
2017-09-15T00:16:59.147Z,89.78
2017-09-15T00:18:09.609Z,89.87
2017-09-15T00:19:20.059Z,89.39
2017-09-15T00:20:30.496Z,89.39
2017-09-15T00:21:41.900Z,90.06
2017-09-15T00:22:52.567Z,89.97
2017-09-15T00:24:01.920Z,89.78
2017-09-15T00:25:12.352Z,90.25
2017-09-15T00:26:22.765Z,90.35
2017-09-15T00:27:33.380Z,90.06
2017-09-15T00:28:44.081Z,89.97
2017-09-15T00:29:54.822Z,90.06
2017-09-15T00:31:05.405Z,90.25
2017-09-15T00:32:15.859Z,89.78
2017-09-15T00:33:26.288Z,90.06
2017-09-15T00:34:36.955Z,90.16
2017-09-15T00:35:47.384Z,90.06
2017-09-15T00:36:57.851Z,89.87
2017-09-15T00:38:08.277Z,90.35
2017-09-15T00:39:18.386Z,90.06
2017-09-15T00:40:29.063Z,90.06
2017-09-15T00:41:39.560Z,89.78
2017-09-15T00:42:49.973Z,90.06
2017-09-15T00:44:00.080Z,90.06
2017-09-15T00:45:10.545Z,89.68
2017-09-15T00:46:21.222Z,90.11
2017-09-15T00:47:31.720Z,89.78
2017-09-15T00:48:41.844Z,89.53
2017-09-15T00:49:51.944Z,89.82
2017-09-15T00:51:02.429Z,89.82
2017-09-15T00:52:12.796Z,90.01
2017-09-15T00:53:23.213Z,90.11
2017-09-15T00:54:33.676Z,89.92
2017-09-15T00:55:44.097Z,89.82
2017-09-15T00:56:54.632Z,89.25
2017-09-15T00:58:05.302Z,89.34
2017-09-15T00:59:15.716Z,89.63
2017-09-15T01:00:26.185Z,90.11
2017-09-15T01:01:36.650Z,89.73
2017-09-15T01:02:46.771Z,89.15
2017-09-15T01:03:57.000Z,89.44
2017-09-15T01:05:07.430Z,89.53
2017-09-15T01:06:17.893Z,89.34
2017-09-15T01:07:28.316Z,89.73
2017-09-15T01:08:38.780Z,89.34
2017-09-15T01:09:49.680Z,89.06
2017-09-15T01:11:00.110Z,89.15
2017-09-15T01:12:10.569Z,89.15
2017-09-15T01:13:21.014Z,89.15
2017-09-15T01:14:31.794Z,88.96
2017-09-15T01:15:42.529Z,89.34
2017-09-15T01:16:53.128Z,89.34
2017-09-15T01:18:03.588Z,88.77
2017-09-15T01:19:14.042Z,88.87
2017-09-15T01:20:24.501Z,88.68
2017-09-15T01:21:35.217Z,88.68
2017-09-15T01:22:45.711Z,88.87
2017-09-15T01:23:56.142Z,88.77
2017-09-15T01:25:06.615Z,88.77
2017-09-15T01:26:17.084Z,88.58
2017-09-15T01:27:27.772Z,88.39
2017-09-15T01:28:38.205Z,88.77
2017-09-15T01:29:48.662Z,88.87
2017-09-15T01:30:59.094Z,88.68
2017-09-15T01:32:09.635Z,88.01
2017-09-15T01:33:20.323Z,88.2
2017-09-15T01:34:30.448Z,88.2
2017-09-15T01:35:40.943Z,88.29
2017-09-15T01:36:51.400Z,88.01
2017-09-15T01:38:01.828Z,88.29
2017-09-15T01:39:12.297Z,87.82
2017-09-15T01:40:22.726Z,87.91
2017-09-15T01:41:33.167Z,88.2
2017-09-15T01:42:43.649Z,87.91
2017-09-15T01:43:54.106Z,88.01
2017-09-15T01:45:04.811Z,88.2
2017-09-15T01:46:15.240Z,88.2
2017-09-15T01:47:25.730Z,88.1
2017-09-15T01:48:36.141Z,88.29
2017-09-15T01:49:46.568Z,88.2
2017-09-15T01:50:57.590Z,88.29
2017-09-15T01:52:08.009Z,88.2
2017-09-15T01:53:18.484Z,87.91
2017-09-15T01:54:28.916Z,87.91
2017-09-15T01:55:39.438Z,88.2
2017-09-15T01:56:50.189Z,88.1
2017-09-15T01:58:00.826Z,87.91
2017-09-15T01:59:11.222Z,88.1
2017-09-15T02:00:21.682Z,88.2
2017-09-15T02:01:31.814Z,88.1
2017-09-15T02:02:42.502Z,88.1
2017-09-15T02:03:52.967Z,88.2
2017-09-15T02:05:03.423Z,87.82
2017-09-15T02:06:13.894Z,88.01
2017-09-15T02:07:24.320Z,88.1
2017-09-15T02:08:34.803Z,88.1
2017-09-15T02:09:45.238Z,87.82
2017-09-15T02:10:55.730Z,88.01
2017-09-15T02:12:06.154Z,88.01
2017-09-15T02:13:16.265Z,88.1
2017-09-15T02:14:26.984Z,88.01
2017-09-15T02:15:37.130Z,88.1
2017-09-15T02:16:47.556Z,88.01
2017-09-15T02:17:58.028Z,88.2
2017-09-15T02:19:08.484Z,88.48
2017-09-15T02:20:19.169Z,88.2
2017-09-15T02:21:29.672Z,88.01
2017-09-15T02:22:40.101Z,88.87
2017-09-15T02:23:50.554Z,88.48
2017-09-15T02:25:00.966Z,88.2
2017-09-15T02:26:11.472Z,88.39
2017-09-15T02:27:21.469Z,88.1
2017-09-15T02:28:31.992Z,88.77
2017-09-15T02:29:41.787Z,88.01
2017-09-15T02:30:51.934Z,88.1
2017-09-15T02:32:02.597Z,88.68
2017-09-15T02:33:13.019Z,88.68
2017-09-15T02:34:23.503Z,88.77
2017-09-15T02:35:33.926Z,88.77
2017-09-15T02:36:44.419Z,88.87
2017-09-15T02:37:55.108Z,88.77
2017-09-15T02:39:05.573Z,88.96
2017-09-15T02:40:16.120Z,88.68
2017-09-15T02:41:26.557Z,88.87
2017-09-15T02:42:37.127Z,88.82
2017-09-15T02:43:47.822Z,88.73
2017-09-15T02:44:58.267Z,88.54
2017-09-15T02:46:08.692Z,88.82
2017-09-15T02:47:18.814Z,88.92
2017-09-15T02:48:29.270Z,88.82
2017-09-15T02:49:39.653Z,88.44
2017-09-15T02:50:50.360Z,88.54
2017-09-15T02:52:00.791Z,88.54
2017-09-15T02:53:11.222Z,88.44
2017-09-15T02:54:21.849Z,88.73
2017-09-15T02:55:32.521Z,88.63
2017-09-15T02:56:43.144Z,88.63
2017-09-15T02:57:53.612Z,88.63
2017-09-15T02:59:04.230Z,88.63
2017-09-15T03:00:14.791Z,88.63
2017-09-15T03:01:25.472Z,88.82
2017-09-15T03:02:35.843Z,88.54
2017-09-15T03:03:46.305Z,88.54
2017-09-15T03:04:56.750Z,88.73
2017-09-15T03:06:07.011Z,88.82
2017-09-15T03:07:17.771Z,88.63
2017-09-15T03:08:28.289Z,88.73
2017-09-15T03:09:38.712Z,88.73
2017-09-15T03:10:49.214Z,88.44
2017-09-15T03:11:59.644Z,88.54
2017-09-15T03:13:10.569Z,88.73
2017-09-15T03:14:21.037Z,88.73
2017-09-15T03:15:31.828Z,88.54
2017-09-15T03:16:42.267Z,88.63
2017-09-15T03:17:52.685Z,88.63
2017-09-15T03:19:03.580Z,88.63
2017-09-15T03:20:14.018Z,88.44
2017-09-15T03:21:24.670Z,88.54
2017-09-15T03:22:35.109Z,88.54
2017-09-15T03:23:45.584Z,88.54
2017-09-15T03:24:56.252Z,88.54
2017-09-15T03:26:06.736Z,88.63
2017-09-15T03:27:17.171Z,88.63
2017-09-15T03:28:27.604Z,88.73
2017-09-15T03:29:38.114Z,88.92
2017-09-15T03:30:48.788Z,88.73
2017-09-15T03:31:59.224Z,88.82
2017-09-15T03:33:09.487Z,88.82
2017-09-15T03:34:19.586Z,88.73
2017-09-15T03:35:30.992Z,88.73
2017-09-15T03:36:41.695Z,88.73
2017-09-15T03:37:52.140Z,88.82
2017-09-15T03:39:02.259Z,88.54
2017-09-15T03:40:12.677Z,88.63
2017-09-15T03:41:23.334Z,89.39
2017-09-15T03:42:33.852Z,89.25
2017-09-15T03:43:44.289Z,89.16
2017-09-15T03:44:54.859Z,88.87
2017-09-15T03:46:05.282Z,89.25
2017-09-15T03:47:15.911Z,89.64
2017-09-15T03:48:27.572Z,89.54
2017-09-15T03:49:38.067Z,89.35
2017-09-15T03:50:48.486Z,89.92
2017-09-15T03:51:58.906Z,89.92
2017-09-15T03:53:09.391Z,89.54
2017-09-15T03:54:20.278Z,90.11
2017-09-15T03:55:30.879Z,89.06
2017-09-15T03:56:41.047Z,89.64
2017-09-15T03:57:51.539Z,89.64
2017-09-15T03:59:02.034Z,89.54
2017-09-15T04:00:12.750Z,90.02
2017-09-15T04:01:22.567Z,88.87
2017-09-15T04:02:33.043Z,89.64
2017-09-15T04:03:43.169Z,89.54
2017-09-15T04:04:53.303Z,89.64
2017-09-15T04:06:04.114Z,89.25
2017-09-15T04:07:14.589Z,89.54
2017-09-15T04:08:25.016Z,89.45
2017-09-15T04:09:35.478Z,90.02
2017-09-15T04:10:45.921Z,89.16
2017-09-15T04:11:56.334Z,89.06
2017-09-15T04:13:06.753Z,88.97
2017-09-15T04:14:16.882Z,88.68
2017-09-15T04:15:27.340Z,89.06
2017-09-15T04:16:38.024Z,89.64
2017-09-15T04:17:48.422Z,89.64
2017-09-15T04:18:58.852Z,89.45
2017-09-15T04:20:08.982Z,89.73
2017-09-15T04:21:19.431Z,89.73
2017-09-15T04:22:29.845Z,89.25
2017-09-15T04:23:40.599Z,89.64
2017-09-15T04:24:51.052Z,89.54
2017-09-15T04:26:01.529Z,89.54
2017-09-15T04:27:12.046Z,89.64
2017-09-15T04:28:23.449Z,89.73
2017-09-15T04:29:33.838Z,89.54
2017-09-15T04:30:43.976Z,89.45
2017-09-15T04:31:54.088Z,89.64
2017-09-15T04:33:04.510Z,89.06
2017-09-15T04:34:15.039Z,88.97
2017-09-15T04:35:25.718Z,89.35
2017-09-15T04:36:36.138Z,88.87
2017-09-15T04:37:46.608Z,88.87
2017-09-15T04:38:57.032Z,89.35
2017-09-15T04:40:07.216Z,89.16
2017-09-15T04:41:18.054Z,89.06
2017-09-15T04:42:28.490Z,89.06
2017-09-15T04:43:38.931Z,89.25
2017-09-15T04:44:49.499Z,89.06
2017-09-15T04:45:59.836Z,88.78
2017-09-15T04:47:10.605Z,88.49
2017-09-15T04:48:21.093Z,88.49
2017-09-15T04:49:31.213Z,88.78
2017-09-15T04:50:41.632Z,88.49
2017-09-15T04:51:52.082Z,88.78
2017-09-15T04:53:02.466Z,88.78
2017-09-15T04:54:12.904Z,88.59
2017-09-15T04:55:23.344Z,88.4
2017-09-15T04:56:33.773Z,88.4
2017-09-15T04:57:44.290Z,88.49
2017-09-15T04:58:54.973Z,88.78
2017-09-15T05:00:05.090Z,88.59
2017-09-15T05:01:15.539Z,88.68
2017-09-15T05:02:25.985Z,88.49
2017-09-15T05:03:36.444Z,88.59
2017-09-15T05:04:47.141Z,88.68
2017-09-15T05:05:57.783Z,88.68
2017-09-15T05:07:08.269Z,88.68
2017-09-15T05:08:18.081Z,88.3
2017-09-15T05:09:28.572Z,87.63
2017-09-15T05:10:39.242Z,88.11
2017-09-15T05:11:49.682Z,88.11
2017-09-15T05:13:00.118Z,87.63
2017-09-15T05:14:10.237Z,87.44
2017-09-15T05:15:20.656Z,87.68
2017-09-15T05:16:31.335Z,87.68
2017-09-15T05:17:41.765Z,87.01
2017-09-15T05:18:52.265Z,87.1
2017-09-15T05:20:02.875Z,87.1
2017-09-15T05:21:13.306Z,86.91
2017-09-15T05:22:24.107Z,86.68
2017-09-15T05:23:34.567Z,86.96
2017-09-15T05:24:45.022Z,87.15
2017-09-15T05:25:55.495Z,86.58
2017-09-15T05:27:06.050Z,86.87
2017-09-15T05:28:16.806Z,86.87
2017-09-15T05:29:27.254Z,87.06
2017-09-15T05:30:37.794Z,86.68
2017-09-15T05:31:48.204Z,86.87
2017-09-15T05:32:58.805Z,87.06
2017-09-15T05:34:10.091Z,87.06
2017-09-15T05:35:20.524Z,86.77
2017-09-15T05:36:30.971Z,87.02
2017-09-15T05:37:41.432Z,87.15
2017-09-15T05:38:51.863Z,87.15
2017-09-15T05:40:02.533Z,87.06
2017-09-15T05:41:12.990Z,87.15
2017-09-15T05:42:23.453Z,87.25
2017-09-15T05:43:34.024Z,87.06
2017-09-15T05:44:44.455Z,87.15
2017-09-15T05:45:55.189Z,87.25
2017-09-15T05:47:05.652Z,87.44
2017-09-15T05:48:15.483Z,87.44
2017-09-15T05:49:25.918Z,86.96
2017-09-15T05:50:36.039Z,87.25
2017-09-15T05:51:46.729Z,87.25
2017-09-15T05:52:56.728Z,87.06
2017-09-15T05:54:06.867Z,87.35
2017-09-15T05:55:17.428Z,87.25
2017-09-15T05:56:27.887Z,87.15
2017-09-15T05:57:38.589Z,86.77
2017-09-15T05:58:49.255Z,87.35
2017-09-15T05:59:59.889Z,86.77
2017-09-15T06:01:10.357Z,86.58
2017-09-15T06:02:20.541Z,86.72
2017-09-15T06:03:31.420Z,86.91
2017-09-15T06:04:41.933Z,87.1
2017-09-15T06:05:52.425Z,86.82
2017-09-15T06:07:02.887Z,86.58
2017-09-15T06:08:12.997Z,86.34
2017-09-15T06:09:23.425Z,86.34
2017-09-15T06:10:34.102Z,86.43
2017-09-15T06:11:44.232Z,86.43
2017-09-15T06:12:54.678Z,86.15
2017-09-15T06:14:05.107Z,85.77
2017-09-15T06:15:15.867Z,86.05
2017-09-15T06:16:26.286Z,85.77
2017-09-15T06:17:36.421Z,85.77
2017-09-15T06:18:46.842Z,85.77
2017-09-15T06:19:57.289Z,85.77
2017-09-15T06:21:07.653Z,85.67
2017-09-15T06:22:18.222Z,85.58
2017-09-15T06:23:28.651Z,84.72
2017-09-15T06:24:39.125Z,84.91
2017-09-15T06:25:49.281Z,85.29
2017-09-15T06:27:00.967Z,85
2017-09-15T06:28:11.391Z,85.29
2017-09-15T06:29:21.818Z,85
2017-09-15T06:30:32.338Z,84.91
2017-09-15T06:31:42.751Z,84.72
2017-09-15T06:32:53.442Z,84.62
2017-09-15T06:34:04.051Z,84.33
2017-09-15T06:35:14.548Z,84.33
2017-09-15T06:36:24.997Z,84.52
2017-09-15T06:37:35.419Z,84.47
2017-09-15T06:38:45.784Z,84.43
2017-09-15T06:39:55.906Z,84.19
2017-09-15T06:41:06.339Z,84.19
2017-09-15T06:42:16.758Z,83.99
2017-09-15T06:43:27.177Z,83.99
2017-09-15T06:44:37.859Z,84.28
2017-09-15T06:45:48.369Z,84.38
2017-09-15T06:46:58.498Z,83.7
2017-09-15T06:48:08.974Z,83.8
2017-09-15T06:49:19.271Z,83.51
2017-09-15T06:50:29.965Z,83.42
2017-09-15T06:51:40.428Z,82.75
2017-09-15T06:52:50.867Z,82.75
2017-09-15T06:54:01.342Z,82.94
2017-09-15T06:55:11.823Z,82.84
2017-09-15T06:56:22.532Z,82.56
2017-09-15T06:57:33.324Z,82.84
2017-09-15T06:58:43.477Z,82.94
2017-09-15T06:59:53.628Z,82.89
2017-09-15T07:01:04.051Z,81.93
2017-09-15T07:02:14.730Z,81.93
2017-09-15T07:03:24.523Z,81.65
2017-09-15T07:04:35.196Z,81.45
2017-09-15T07:05:45.647Z,81.07
2017-09-15T07:06:56.061Z,81.07
2017-09-15T07:08:06.734Z,81.07
2017-09-15T07:09:17.161Z,81.07
2017-09-15T07:10:27.627Z,80.98
2017-09-15T07:11:38.150Z,81.16
2017-09-15T07:12:48.249Z,80.98
2017-09-15T07:13:58.310Z,81.26
2017-09-15T07:15:08.727Z,81.07
2017-09-15T07:16:19.167Z,80.69
2017-09-15T07:17:29.599Z,80.69
2017-09-15T07:18:40.038Z,79.64
2017-09-15T07:19:50.765Z,79.54
2017-09-15T07:21:00.748Z,79.93
2017-09-15T07:22:11.176Z,79.44
2017-09-15T07:23:21.811Z,79.35
2017-09-15T07:24:32.337Z,78.72
2017-09-15T07:25:43.015Z,79.2
2017-09-15T07:26:53.478Z,78.53
2017-09-15T07:28:04.229Z,78.53
2017-09-15T07:29:14.648Z,78.24
2017-09-15T07:30:25.134Z,77.95
2017-09-15T07:31:35.868Z,77.57
2017-09-15T07:32:46.168Z,77.33
2017-09-15T07:33:56.614Z,77.33
2017-09-15T07:35:07.063Z,77.23
2017-09-15T07:36:17.522Z,76.46
2017-09-15T07:37:28.209Z,76.18
2017-09-15T07:38:38.714Z,76.27
2017-09-15T07:39:49.203Z,76.18
2017-09-15T07:40:59.630Z,76.37
2017-09-15T07:42:09.782Z,76.4
2017-09-15T07:43:20.562Z,75.73
2017-09-15T07:44:30.563Z,75.35
2017-09-15T07:45:41.063Z,75.07
2017-09-15T07:46:51.509Z,74.33
2017-09-15T07:48:02.153Z,73.76
2017-09-15T07:49:12.829Z,73.51
2017-09-15T07:50:23.276Z,73.22
2017-09-15T07:51:33.743Z,72.84
2017-09-15T07:52:44.163Z,72.59
2017-09-15T07:53:55.001Z,71.72
2017-09-15T07:55:05.372Z,70.67
2017-09-15T07:56:15.480Z,71.53
2017-09-15T07:57:25.932Z,71.15
2017-09-15T07:58:36.578Z,69.46
2017-09-15T07:59:47.037Z,67.64
2017-09-15T08:00:57.728Z,66.27
2017-09-15T08:02:08.433Z,64.79
2017-09-15T08:03:18.940Z,63.76
2017-09-15T08:04:29.411Z,62.09
2017-09-15T08:05:39.861Z,58.58
2017-09-15T08:06:50.547Z,55.45
2017-09-15T08:08:00.687Z,51.97
2017-09-15T08:09:11.119Z,50.45
2017-09-15T08:10:21.556Z,49.9
2017-09-15T08:11:32.166Z,51.66
2017-09-15T08:12:43.128Z,48.11
2017-09-15T08:13:53.546Z,48.79
2017-09-15T08:15:04.019Z,48.13
2017-09-15T08:16:14.768Z,46.12
2017-09-15T08:17:25.022Z,44.78
2017-09-15T08:18:35.697Z,45.68
2017-09-15T08:19:46.124Z,46.22
2017-09-15T08:20:56.565Z,44.93
2017-09-15T08:22:07.002Z,46.34
2017-09-15T08:23:17.505Z,47.86
2017-09-15T08:24:28.173Z,47.19
2017-09-15T08:25:38.910Z,47.48
2017-09-15T08:26:49.350Z,46.78
2017-09-15T08:27:59.856Z,47.91
2017-09-15T08:29:10.483Z,48.08
2017-09-15T08:30:21.322Z,48.83
2017-09-15T08:31:31.772Z,49.39
2017-09-15T08:32:42.239Z,50.45
2017-09-15T08:33:52.702Z,51.39
2017-09-15T08:35:03.170Z,51.65
2017-09-15T08:36:13.559Z,52.3
2017-09-15T08:37:24.019Z,52.85
2017-09-15T08:38:34.471Z,53.11
2017-09-15T08:39:45.110Z,54.05
2017-09-15T08:40:55.746Z,54.99
2017-09-15T08:42:07.405Z,54.86
2017-09-15T08:43:17.848Z,54.47
2017-09-15T08:44:28.307Z,54.82
2017-09-15T08:45:38.737Z,55.11
2017-09-15T08:46:49.380Z,55.2
2017-09-15T08:48:00.065Z,55.59
2017-09-15T08:49:10.513Z,55.46
2017-09-15T08:50:21.003Z,55.4
2017-09-15T08:51:30.762Z,54.78
2017-09-15T08:52:42.224Z,53.17
2017-09-15T08:53:52.952Z,53.39
2017-09-15T08:55:03.417Z,53
2017-09-15T08:56:13.868Z,51.48
2017-09-15T08:57:24.540Z,50.26
2017-09-15T08:58:34.802Z,51.12
2017-09-15T08:59:45.533Z,49.58
2017-09-15T09:00:55.656Z,50.81
2017-09-15T09:02:06.117Z,51.48
2017-09-15T09:03:16.669Z,51.75
2017-09-15T09:04:27.104Z,52.59
2017-09-15T09:05:37.796Z,52.66
2017-09-15T09:06:48.249Z,53.5
2017-09-15T09:07:58.444Z,53.69
2017-09-15T09:09:08.883Z,53.86
2017-09-15T09:10:19.313Z,54.12
2017-09-15T09:11:30.151Z,54.79
2017-09-15T09:12:40.593Z,55.34
2017-09-15T09:13:51.059Z,55.73
2017-09-15T09:15:01.211Z,56.27
2017-09-15T09:16:11.240Z,56.66
2017-09-15T09:17:21.484Z,56.82
2017-09-15T09:18:31.625Z,57.4
2017-09-15T09:19:42.099Z,57.23
2017-09-15T09:20:52.598Z,57.5
2017-09-15T09:22:03.138Z,57.4
2017-09-15T09:23:13.828Z,57.97
2017-09-15T09:24:24.516Z,58.17
2017-09-15T09:25:34.956Z,58
2017-09-15T09:26:45.388Z,57.9
2017-09-15T09:27:56.913Z,57.81
2017-09-15T09:29:07.600Z,56.98
2017-09-15T09:30:18.054Z,56.62
2017-09-15T09:31:28.606Z,56.23
2017-09-15T09:32:39.063Z,55.52
2017-09-15T09:33:49.507Z,55.35
2017-09-15T09:34:59.572Z,53.23
2017-09-15T09:36:10.018Z,52.4
2017-09-15T09:37:20.505Z,50.78
2017-09-15T09:38:30.971Z,49.07
2017-09-15T09:39:41.409Z,48.33
2017-09-15T09:40:52.142Z,46.83
2017-09-15T09:42:02.577Z,44.92
2017-09-15T09:43:13.120Z,44.65
2017-09-15T09:44:23.618Z,43.32
2017-09-15T09:45:34.083Z,40.81
2017-09-15T09:46:44.784Z,42.76
2017-09-15T09:47:55.231Z,41.02
2017-09-15T09:49:05.761Z,42.08
2017-09-15T09:50:16.206Z,42.45
2017-09-15T09:51:26.402Z,42.55
2017-09-15T09:52:37.102Z,43.01
2017-09-15T09:53:47.623Z,42.99
2017-09-15T09:54:58.071Z,44.05
2017-09-15T09:56:08.552Z,44.51
2017-09-15T09:57:19.000Z,44.42
2017-09-15T09:58:29.415Z,44.43
2017-09-15T09:59:39.729Z,43.61
2017-09-15T10:00:49.879Z,40.53
2017-09-15T10:02:00.414Z,38.45
2017-09-15T10:03:10.861Z,38.45
2017-09-15T10:04:21.555Z,39.41
2017-09-15T10:05:31.998Z,39.41
2017-09-15T10:06:42.467Z,40.58
2017-09-15T10:07:53.010Z,39.86
2017-09-15T10:09:03.647Z,41.58
2017-09-15T10:10:14.431Z,42.33
2017-09-15T10:11:24.877Z,42.41
2017-09-15T10:12:35.316Z,43.26
2017-09-15T10:13:45.769Z,44.49
2017-09-15T10:14:56.204Z,44.78
2017-09-15T10:16:07.065Z,45.24
2017-09-15T10:17:17.515Z,44.78
2017-09-15T10:18:28.105Z,44.85
2017-09-15T10:19:38.682Z,45.07
2017-09-15T10:20:49.135Z,43.54
2017-09-15T10:21:59.838Z,42.99
2017-09-15T10:23:09.983Z,43.47
2017-09-15T10:24:20.463Z,43.37
2017-09-15T10:25:30.483Z,42.99
2017-09-15T10:26:40.936Z,42.48
2017-09-15T10:27:51.700Z,42.19
2017-09-15T10:29:02.170Z,41.6
2017-09-15T10:30:12.357Z,41.88
2017-09-15T10:31:22.795Z,41.61
2017-09-15T10:32:33.271Z,42.29
2017-09-15T10:33:44.004Z,42.21
2017-09-15T10:34:54.488Z,43.16
2017-09-15T10:36:04.920Z,43.06
2017-09-15T10:37:15.442Z,42.85
2017-09-15T10:38:25.892Z,43.04
2017-09-15T10:39:36.360Z,43.33
2017-09-15T10:40:46.811Z,42.75
2017-09-15T10:41:57.348Z,41.42
2017-09-15T10:43:07.681Z,41.44
2017-09-15T10:44:18.142Z,40.09
2017-09-15T10:45:28.930Z,39.24
2017-09-15T10:46:39.436Z,38.39
2017-09-15T10:47:49.909Z,38.6
2017-09-15T10:49:00.375Z,36.88
2017-09-15T10:50:10.617Z,36.02
2017-09-15T10:51:21.341Z,36.14
2017-09-15T10:52:31.813Z,35.77
2017-09-15T10:53:42.289Z,34.91
2017-09-15T10:54:52.738Z,33.75
2017-09-15T10:56:03.214Z,35.13
2017-09-15T10:57:13.914Z,35.03
2017-09-15T10:58:24.425Z,35.13
2017-09-15T10:59:34.904Z,33.76
2017-09-15T11:00:45.425Z,32.81
2017-09-15T11:01:55.953Z,32.99
2017-09-15T11:03:06.662Z,32.6
2017-09-15T11:04:17.139Z,33.47
2017-09-15T11:05:27.713Z,33.84
2017-09-15T11:06:39.155Z,35.28
2017-09-15T11:07:49.306Z,34.97
2017-09-15T11:09:00.020Z,36.02
2017-09-15T11:10:10.523Z,36.3
2017-09-15T11:11:21.113Z,36.66
2017-09-15T11:12:31.117Z,37.62
2017-09-15T11:13:41.574Z,37.81
2017-09-15T11:14:51.965Z,38.56
2017-09-15T11:16:02.433Z,39.22
2017-09-15T11:17:12.884Z,39.69
2017-09-15T11:18:23.344Z,40.05
2017-09-15T11:19:34.787Z,40.61
2017-09-15T11:20:45.494Z,40.99
2017-09-15T11:21:55.788Z,41.75
2017-09-15T11:23:06.385Z,42.11
2017-09-15T11:24:16.511Z,42.3
2017-09-15T11:25:26.700Z,43.05
2017-09-15T11:26:37.078Z,42.76
2017-09-15T11:27:47.219Z,42.96
2017-09-15T11:28:57.507Z,42.59
2017-09-15T11:30:07.547Z,42.49
2017-09-15T11:31:18.111Z,42.9
2017-09-15T11:32:28.947Z,42.23
2017-09-15T11:33:39.151Z,42.52
2017-09-15T11:34:49.610Z,42.23
2017-09-15T11:36:00.073Z,42.42
2017-09-15T11:37:10.263Z,42.23
2017-09-15T11:38:21.089Z,42.97
2017-09-15T11:39:31.534Z,42.97
2017-09-15T11:40:42.033Z,42.79
2017-09-15T11:41:52.518Z,42.69
2017-09-15T11:43:03.176Z,42.23
2017-09-15T11:44:13.564Z,41.96
2017-09-15T11:45:25.296Z,40.99
2017-09-15T11:46:35.454Z,41.61
2017-09-15T11:47:45.896Z,41.25
2017-09-15T11:48:55.911Z,40.38
2017-09-15T11:50:06.638Z,38.76
2017-09-15T11:51:17.224Z,38.76
2017-09-15T11:52:27.664Z,39.24
2017-09-15T11:53:37.370Z,39.51
2017-09-15T11:54:47.814Z,39.7
2017-09-15T11:55:58.560Z,40.38
2017-09-15T11:57:09.074Z,39.97
2017-09-15T11:58:19.543Z,40.53
2017-09-15T11:59:29.791Z,40.9
2017-09-15T12:00:40.253Z,41.48
2017-09-15T12:01:50.979Z,41.48
2017-09-15T12:03:01.454Z,41.94
2017-09-15T12:04:11.881Z,42.3
2017-09-15T12:05:22.327Z,42.88
2017-09-15T12:06:32.838Z,42.57
2017-09-15T12:07:43.588Z,43.05
2017-09-15T12:08:53.716Z,43.13
2017-09-15T12:10:04.161Z,43.32
2017-09-15T12:11:14.829Z,43.99
2017-09-15T12:12:25.337Z,43.78
2017-09-15T12:13:36.111Z,43.59
2017-09-15T12:14:46.666Z,44.35
2017-09-15T12:15:57.108Z,44.35
2017-09-15T12:17:07.563Z,43.88
2017-09-15T12:18:18.087Z,44.45
2017-09-15T12:19:28.800Z,44.53
2017-09-15T12:20:39.252Z,44.14
2017-09-15T12:21:49.701Z,44.34
2017-09-15T12:23:00.135Z,44.7
2017-09-15T12:24:10.349Z,44.91
2017-09-15T12:25:20.750Z,45.08
2017-09-15T12:26:32.195Z,45.47
2017-09-15T12:27:42.666Z,45.28
2017-09-15T12:28:53.103Z,45.47
2017-09-15T12:30:03.590Z,45.85
2017-09-15T12:31:14.290Z,46.14
2017-09-15T12:32:24.733Z,46.33
2017-09-15T12:33:35.179Z,46.14
2017-09-15T12:34:45.652Z,46.91
2017-09-15T12:35:55.711Z,47
2017-09-15T12:37:06.453Z,47.3
2017-09-15T12:38:16.925Z,47.77
2017-09-15T12:39:27.375Z,47.87
2017-09-15T12:40:37.818Z,48.25
2017-09-15T12:41:47.938Z,48.45
2017-09-15T12:42:58.691Z,48.74
2017-09-15T12:44:10.107Z,48.83
2017-09-15T12:45:20.558Z,49.22
2017-09-15T12:46:31.001Z,49.02
2017-09-15T12:47:41.482Z,49.1
2017-09-15T12:48:52.202Z,49.02
2017-09-15T12:50:02.628Z,49.19
2017-09-15T12:51:13.001Z,48.81
2017-09-15T12:52:23.562Z,49
2017-09-15T12:53:33.682Z,49
2017-09-15T12:54:44.370Z,48.81
2017-09-15T12:55:54.810Z,49.19
2017-09-15T12:57:05.256Z,48.9
2017-09-15T12:58:15.760Z,49.29
2017-09-15T12:59:26.218Z,49.57
2017-09-15T13:00:37.255Z,49.29
2017-09-15T13:01:47.458Z,49.29
2017-09-15T13:02:58.247Z,49.57
2017-09-15T13:04:08.683Z,49.19
2017-09-15T13:05:19.157Z,49.48
2017-09-15T13:06:29.867Z,49.48
2017-09-15T13:07:40.328Z,49.38
2017-09-15T13:08:50.868Z,49.57
2017-09-15T13:10:01.039Z,49.19
2017-09-15T13:11:11.077Z,49.57
2017-09-15T13:12:21.793Z,49.38
2017-09-15T13:13:32.232Z,49.57
2017-09-15T13:14:42.254Z,49.48
2017-09-15T13:15:52.922Z,49.57
2017-09-15T13:17:03.368Z,49.96
2017-09-15T13:18:14.060Z,50.23
2017-09-15T13:19:24.272Z,49.96
2017-09-15T13:20:34.717Z,49.67
2017-09-15T13:21:45.237Z,50.05
2017-09-15T13:22:55.770Z,50.15
2017-09-15T13:24:06.520Z,50.32
2017-09-15T13:25:17.009Z,49.67
2017-09-15T13:26:27.453Z,49.48
2017-09-15T13:27:38.092Z,49.65
2017-09-15T13:28:48.600Z,49.48
2017-09-15T13:29:59.510Z,50.13
2017-09-15T13:31:09.967Z,50.13
2017-09-15T13:32:20.453Z,49.93
2017-09-15T13:33:30.924Z,50.23
2017-09-15T13:34:41.521Z,50.32
2017-09-15T13:35:52.268Z,50.03
2017-09-15T13:37:02.992Z,50.51
2017-09-15T13:38:13.670Z,50.23
2017-09-15T13:39:24.110Z,50.61
2017-09-15T13:40:34.572Z,50.61
2017-09-15T13:41:45.250Z,50.61
2017-09-15T13:42:55.799Z,50.61
2017-09-15T13:44:06.250Z,50.99
2017-09-15T13:45:16.381Z,50.99
2017-09-15T13:46:26.843Z,51.09
2017-09-15T13:47:37.365Z,50.99
2017-09-15T13:48:47.815Z,50.99
2017-09-15T13:49:57.965Z,50.7
2017-09-15T13:51:08.517Z,50.61
2017-09-15T13:52:18.974Z,50.9
2017-09-15T13:53:29.827Z,51.02
2017-09-15T13:54:40.292Z,50.9
2017-09-15T13:55:50.842Z,50.99
2017-09-15T13:57:01.319Z,51.18
2017-09-15T13:58:11.774Z,50.99
2017-09-15T13:59:21.744Z,50.9
2017-09-15T14:00:32.225Z,50.61
2017-09-15T14:01:42.739Z,50.82
2017-09-15T14:02:53.212Z,51.09
2017-09-15T14:04:03.723Z,50.61
2017-09-15T14:05:14.477Z,51.47
2017-09-15T14:06:24.623Z,51.57
2017-09-15T14:07:34.845Z,51.86
2017-09-15T14:08:45.362Z,52.43
2017-09-15T14:09:55.477Z,53.11
2017-09-15T14:11:06.177Z,53.68
2017-09-15T14:12:16.609Z,54.45
2017-09-15T14:13:27.165Z,54.64
2017-09-15T14:14:37.682Z,54.33
2017-09-15T14:15:47.865Z,54.74
2017-09-15T14:16:58.238Z,54.33
2017-09-15T14:18:08.708Z,55
2017-09-15T14:19:19.185Z,55.19
2017-09-15T14:20:29.832Z,55.1
2017-09-15T14:21:40.289Z,55.29
2017-09-15T14:22:51.147Z,55.29
2017-09-15T14:24:01.610Z,55.38
2017-09-15T14:25:12.267Z,55.29
2017-09-15T14:26:22.554Z,55.29
2017-09-15T14:27:33.005Z,55.38
2017-09-15T14:28:43.415Z,55.29
2017-09-15T14:29:53.875Z,55.47
2017-09-15T14:31:04.023Z,56.24
2017-09-15T14:32:14.153Z,56.63
2017-09-15T14:33:24.589Z,56.34
2017-09-15T14:34:35.430Z,57.01
2017-09-15T14:35:45.876Z,57.14
2017-09-15T14:36:56.459Z,57.33
2017-09-15T14:38:06.922Z,57.33
2017-09-15T14:39:17.438Z,57.23
2017-09-15T14:40:28.147Z,57.52
2017-09-15T14:41:38.631Z,57.33
2017-09-15T14:42:48.803Z,57.43
2017-09-15T14:43:59.302Z,57.14
2017-09-15T14:45:09.939Z,57.14
2017-09-15T14:46:20.671Z,57.33
2017-09-15T14:47:30.878Z,57.23
2017-09-15T14:48:41.293Z,57.93
2017-09-15T14:49:51.442Z,57.26
2017-09-15T14:51:02.028Z,57.26
2017-09-15T14:52:12.732Z,56.88
2017-09-15T14:53:23.259Z,57.17
2017-09-15T14:54:33.732Z,56.4
2017-09-15T14:55:44.237Z,56.49
2017-09-15T14:56:54.379Z,56.49
2017-09-15T14:58:05.163Z,55.44
2017-09-15T14:59:15.662Z,55.24
2017-09-15T15:00:26.126Z,54.57
2017-09-15T15:01:36.583Z,54.16
2017-09-15T15:02:46.799Z,54.25
2017-09-15T15:03:57.729Z,54.25
2017-09-15T15:05:08.193Z,54.25
2017-09-15T15:06:18.716Z,54.35
2017-09-15T15:07:29.351Z,54.71
2017-09-15T15:08:39.823Z,54.42
2017-09-15T15:09:50.087Z,54.52
2017-09-15T15:11:00.229Z,54.8